Blue Oak Ranch Reserve, California Weather observations

Data are for 10 minute period ending at time listed.
 Day   Time   Solar   Ave.   Ave.  Ave.  Vector  Max.   Baro.   Total    
  of    of     Rad.   Air    Rel.  Wind   Wind   Wind  Press.  Precip.   
Year   Day            Temp.  Hum.  Speed  Dir.   Gust                    
2014   (PST)  Kw/m2    F      %     mph   deg.    mph    mb.     in.     
-------------------------------------------------------------------------
 105    3:10   0.00   45.5    75    0.1   316     0.9   949.0    0.00 
 105    3:20   0.00   45.1    71    0.1   311     0.7   949.0    0.00 
 105    3:30   0.00   45.0    70    0.7   302     1.5   948.8    0.00 
 105    3:40   0.00   44.4    67    0.0     0     0.0   948.7    0.00 
 105    3:50   0.00   44.9    65    0.0   333     0.6   948.6    0.00 
 105    4:00   0.00   44.8    64    0.0   328     0.5   948.5    0.00 
 105    4:10   0.00   44.9    62    0.5   287     1.7   948.5    0.00 
 105    4:20   0.00   45.3    59    0.0     0     0.0   948.4    0.00 
 105    4:30   0.00   45.8    57    1.2   301     2.3   948.4    0.00 
 105    4:40   0.00   45.3    58    0.7   326     1.6   948.5    0.00 
 105    4:50   0.00   46.2    56    0.2   352     1.1   948.5    0.00 
 105    5:00   0.00   47.2    54    0.1   225     0.7   948.6    0.00 
 105    5:10   0.00   47.3    52    0.3   307     1.2   948.6    0.00 
 105    5:20   0.00   46.4    54    0.5    45     1.6   948.6    0.00 
 105    5:30   0.01   47.2    53    0.6   282     1.7   948.6    0.00 
 105    5:40   0.01   47.2    52    0.3   301     0.9   948.6    0.00 
 105    5:50   0.01   48.1    50    0.2   290     1.5   948.7    0.00 
 105    6:00   0.01   48.8    51    0.7   286     2.0   948.8    0.00 
 105    6:10   0.03   48.9    52    1.2   295     2.9   948.8    0.00 
 105    6:20   0.05   49.6    49    0.2   185     0.9   948.8    0.00 
 105    6:30   0.05   50.5    49    0.4   278     2.7   948.8    0.00 
 105    6:40   0.09   49.5    56    3.2   289     3.9   948.8    0.00 
 105    6:50   0.19   51.7    50    1.2   303     3.4   948.8    0.00 
 105    7:00   0.23   57.5    39    0.6    87     2.2   948.8    0.00 
 105    7:10   0.26   61.4    43    0.9   300     2.0   948.6    0.00 
 105    7:20   0.25   61.6    41    1.5   276     2.0   948.5    0.00 
 105    7:30   0.28   60.9    44    0.9   344     2.0   948.5    0.00 
 105    7:40   0.34   63.6    44    0.3    99     1.0   948.4    0.00 
 105    7:50   0.22   63.6    44    0.1   104     1.1   948.5    0.00 
 105    8:00   0.33   62.8    48    0.5    96     1.5   948.5    0.00 
 105    8:10   0.48   64.4    36    1.6   138     2.6   948.6    0.00 
 105    8:20   0.51   66.2    29    0.9   152     2.5   948.6    0.00 
 105    8:30   0.55   67.2    26    0.6    88     1.8   948.6    0.00 
 105    8:40   0.58   68.4    23    1.1    86     2.9   948.8    0.00 
 105    8:50   0.62   69.2    24    1.4    87     3.2   948.8    0.00 
 105    9:00   0.65   68.5    26    2.1   154     4.5   948.8    0.00 
 105    9:10   0.68   68.8    25    3.3   173     7.5   948.9    0.00 
 105    9:20   0.70   68.9    28    4.8   258     7.0   948.9    0.00 
 105    9:30   0.73   69.0    23    3.8   264     6.1   948.9    0.00 
 105    9:40   0.76   69.7    25    2.7   249     5.3   948.9    0.00 
 105    9:50   0.79   70.0    25    2.6   218     5.0   948.9    0.00 
 105   10:00   0.81   69.9    24    2.6   216     5.1   949.0    0.00 
 105   10:10   0.83   70.7    26    4.0   232     6.1   949.0    0.00 
 105   10:20   0.85   70.4    26    4.2   231     6.4   949.0    0.00 
 105   10:30   0.87   71.0    25    2.6   223     5.4   948.8    0.00 
 105   10:40   0.89   71.6    26    4.6   230     7.2   948.7    0.00 
 105   10:50   0.90   70.8    28    5.9   261     9.7   948.7    0.00 
 105   11:00   0.91   70.0    29    5.9   260    10.3   948.7    0.00 
 105   11:10   0.92   70.5    32    6.3   259    11.7   948.6    0.00 
 105   11:20   0.93   69.1    43    6.9   255    11.3   948.6    0.00 
 105   11:30   0.93   68.2    43    5.9   260     9.3   948.5    0.00 
 105   11:40   0.94   68.1    41    4.9   234     8.1   948.5    0.00 
 105   11:50   0.94   68.6    41    5.1   229     8.4   948.5    0.00 
 105   12:00   0.94   69.1    41    4.1   239     7.2   948.4    0.00 
 105   12:10   0.94   70.1    37    5.3   236     8.6   948.4    0.00 
 105   12:20   0.94   70.1    39    5.9   240    10.0   948.4    0.00 
 105   12:30   0.94   70.1    41    4.8   249     8.8   948.4    0.00 
 105   12:40   0.93   70.1    44    5.9   230     8.6   948.3    0.00 
 105   12:50   0.90   70.2    44    5.9   241    10.3   948.3    0.00 
 105   13:00   0.92   69.9    47    5.9   231     9.4   948.3    0.00 
 105   13:10   0.91   69.8    46    6.0   230     9.6   948.2    0.00 
 105   13:20   0.90   69.9    47    5.4   241     9.6   948.1    0.00 
 105   13:30   0.88   70.3    47    6.8   233    11.4   948.0    0.00 
 105   13:40   0.87   70.1    48    5.7   228    10.2   947.8    0.00 
 105   13:50   0.85   70.7    46    5.5   243    10.2   947.7    0.00 
 105   14:00   0.83   70.6    45    6.9   239    11.5   947.6    0.00 
 105   14:10   0.82   70.7    44    6.7   254    10.4   947.6    0.00 
 105   14:20   0.79   70.5    45    5.5   236    10.9   947.5    0.00 
 105   14:30   0.77   70.6    45    5.4   243    11.0   947.3    0.00 
 105   14:40   0.75   70.6    44    6.6   251    11.9   947.2    0.00 
 105   14:50   0.72   70.9    45    4.2   250     9.6   947.2    0.00 
 105   15:00   0.70   71.1    44    5.8   239    10.7   947.0    0.00 
 105   15:10   0.67   70.3    46    6.5   232    12.6   947.0    0.00 
 105   15:20   0.64   70.4    46    5.5   248     9.8   946.9    0.00 
 105   15:30   0.61   71.7    43    4.9   250     8.7   946.8    0.00 
 105   15:40   0.58   71.0    45    5.8   229     9.1   946.7    0.00 
 105   15:50   0.55   69.9    45    6.2   220     9.6   946.6    0.00 
 105   16:00   0.52   69.9    46    5.3   238     8.0   946.5    0.00 
 105   16:10   0.49   70.3    44    4.4   238     7.7   946.4    0.00 
 105   16:20   0.45   70.5    42    3.9   239     7.2   946.4    0.00 
 105   16:30   0.42   71.1    40    5.0   232     9.1   946.3    0.00 
 105   16:40   0.38   70.4    43    4.9   238     7.8   946.2    0.00 
 105   16:50   0.35   69.9    46    4.6   232     7.9   946.1    0.00 
 105   17:00   0.31   69.7    48    3.4   253     7.2   946.1    0.00 
 105   17:10   0.27   69.5    48    4.5   246     7.7   946.0    0.00 
 105   17:20   0.24   68.8    47    4.5   256     7.4   945.9    0.00 
 105   17:30   0.20   69.3    46    3.6   263     5.8   945.9    0.00 
 105   17:40   0.17   69.3    46    2.8   259     5.1   945.7    0.00 
 105   17:50   0.14   68.4    49    2.7   241     5.2   945.6    0.00 
 105   18:00   0.10   65.6    56    3.2   235     6.0   945.5    0.00 
 105   18:10   0.07   64.7    57    2.3   276     4.2   945.3    0.00 
 105   18:20   0.06   63.1    61    1.8   303     3.4   945.2    0.00 
 105   18:30   0.03   59.8    68    0.6    47     1.8   945.1    0.00 
 105   18:40   0.01   57.9    71    0.9   346     2.3   945.0    0.00 
 105   18:50   0.01   56.4    72    0.3   346     1.8   945.0    0.00 
 105   19:00   0.00   55.3    73    1.6   297     3.1   945.3    0.00 
 105   19:10   0.00   54.2    68    0.9    22     2.6   945.3    0.00 
 105   19:20   0.00   53.1    70    0.8    39     2.5   945.4    0.00 
 105   19:30   0.00   52.2    75    0.3   295     1.5   945.6    0.00 
 105   19:40   0.00   51.7    76    0.2    35     1.5   945.8    0.00 
 105   19:50   0.00   51.1    78    1.3   296     3.1   945.9    0.00 
 105   20:00   0.00   50.8    76    0.7   321     2.2   946.1    0.00 
 105   20:10   0.00   50.4    75    0.4   297     1.6   946.3    0.00 
 105   20:20   0.00   50.1    74    0.1   350     0.8   946.3    0.00 
 105   20:30   0.00   49.7    75    0.7   283     1.9   946.3    0.00 
 105   20:40   0.00   49.2    76    0.0   304     0.7   946.3    0.00 
 105   20:50   0.00   48.8    77    0.0     0     0.0   946.3    0.00 
 105   21:00   0.00   48.5    78    0.1    15     0.8   946.3    0.00 
 105   21:10   0.00   48.1    79    0.0     8     0.7   946.2    0.00 
 105   21:20   0.00   47.9    80    0.0     0     0.0   946.1    0.00 
 105   21:30   0.00   47.8    80    0.0     0     0.0   946.2    0.00 
 105   21:40   0.00   47.4    80    0.1   285     0.9   946.1    0.00 
 105   21:50   0.00   47.0    81    0.3     1     1.1   946.0    0.00 
 105   22:00   0.00   46.8    81    0.3   359     1.1   946.0    0.00 
 105   22:10   0.00   47.1    78    1.2   292     3.5   945.9    0.00 
 105   22:20   0.00   47.3    74    0.0   292     0.6   945.9    0.00 
 105   22:30   0.00   47.2    73    0.0    63     0.7   945.8    0.00 
 105   22:40   0.00   47.0    73    0.3   300     1.5   945.8    0.00 
 105   22:50   0.00   46.8    72    0.5   300     1.5   945.8    0.00 
 105   23:00   0.00   46.7    71    0.5   314     2.3   945.8    0.00 
 105   23:10   0.00   46.8    70    1.7    63     3.5   945.8    0.00 
 105   23:20   0.00   47.1    66    1.3   308     2.4   945.8    0.00 
 105   23:30   0.00   46.7    69    0.3    86     2.0   945.8    0.00 
 105   23:40   0.00   46.2    68    0.0   318     0.7   945.6    0.00 
 105   23:50   0.00   45.8    68    0.2   340     1.4   945.4    0.00 
 106    0:00   0.00   46.4    66    0.7    52     2.9   945.5    0.00 
 106    0:10   0.00   46.4    67    1.3    53     3.2   945.4    0.00 
 106    0:20   0.00   45.3    71    2.0   286     3.9   945.5    0.00 
 106    0:30   0.00   44.3    74    1.4   352     3.6   945.6    0.00 
 106    0:40   0.00   46.2    68    1.4   323     3.0   945.5    0.00 
 106    0:50   0.00   46.5    70    0.9    63     2.3   945.6    0.00 
 106    1:00   0.00   45.7    72    1.9   303     4.3   945.7    0.00 
 106    1:10   0.00   45.2    74    0.7    66     2.4   945.7    0.00 
 106    1:20   0.00   46.2    74    0.9    33     3.1   945.7    0.00 
 106    1:30   0.00   44.8    77    1.6   288     4.0   945.7    0.00 
 106    1:40   0.00   45.2    76    1.4    40     2.3   945.5    0.00 
 106    1:50   0.00   45.5    77    0.4    52     2.0   945.4    0.00 
 106    2:00   0.00   45.6    76    0.7   290     2.0   945.3    0.00 
 106    2:10   0.00   45.5    77    1.5   299     4.7   945.4    0.00 
 106    2:20   0.00   45.5    78    1.4    41     3.8   945.4    0.00 
 106    2:30   0.00   44.6    81    0.4    98     1.2   945.4    0.00 
 106    2:40   0.00   45.1    79    0.8   354     1.8   945.4    0.00 
 106    2:50   0.00   44.4    81    1.4   309     2.4   945.4    0.00 
 106    3:00   0.00   44.3    81    1.8   315     4.0   945.5    0.00 

Return to Blue Oak Ranch Reserve graphs page.


Western Regional Climate Center,wrcc@dri.edu